Akwesasne, New York
Current Conditions -  °F | °C
As of 6:53 PM on Wednesday 26 Nov 2014 (Local Time) from KMSS Reporting Station
Overcast Overcast  
Wind Chill: 23°   Ceiling: 7500
Heat Index: 30°   Visibility: 10mi
Dew Point: 21°   Wind: 7mph
Humidity: 69%   Direction: 20°NNE
Pressure: 30.12"   Gusts: NA
Location:  44.9835°N, 74.6107°W
Report Text: KMSS 262353Z AUTO 02006KT 10SM OVC075 M01/M06 A3012 RMK AO2 SLP206 T10111061 10000 21011 58015
Loading
Personal Weather Stations






























Interactive Weather Map New forecast layout! Learn more

10-Day Weather Forecast

Advertisements
Track Severe Weather on mobile